Time;durP1;ratioP1;P1;durP2;ratioP2;P2;SDS_P1;SDS_P2;PMS_P1;PMS_P2;Temp;Humidity;BMP_temperature;BMP_pressure;BME280_temperature;BME280_humidity;BME280_pressure;Samples;Min_cycle;Max_cycle;Signal;HPM_P1;HPM_P2
2023/10/03 00:01:20;;;;;;;18.50;11.10;;;26.50;57.30;;;;;;5061802;28;20471;-81
2023/10/03 00:03:52;;;;;;;19.77;12.37;;;26.50;57.20;;;;;;5057224;28;20409;-80
2023/10/03 00:06:21;;;;;;;20.03;11.70;;;26.50;57.30;;;;;;5055261;28;20414;-80
2023/10/03 00:08:49;;;;;;;20.20;12.37;;;26.50;57.20;;;;;;5061089;28;20439;-81
2023/10/03 00:11:20;;;;;;;18.97;12.20;;;26.40;57.20;;;;;;5060981;28;20459;-81
2023/10/03 00:13:49;;;;;;;18.77;11.67;;;26.50;57.30;;;;;;5055514;28;20450;-80
2023/10/03 00:16:18;;;;;;;20.50;12.27;;;26.40;57.10;;;;;;5068898;28;20470;-80
2023/10/03 00:18:46;;;;;;;19.10;11.97;;;26.40;57.20;;;;;;5062247;28;20436;-80
2023/10/03 00:21:14;;;;;;;17.80;11.27;;;26.40;57.20;;;;;;5052775;28;20433;-80
2023/10/03 00:23:42;;;;;;;16.43;11.23;;;26.40;57.10;;;;;;5057815;28;20449;-80
2023/10/03 00:26:17;;;;;;;19.40;12.70;;;26.40;57.20;;;;;;5058151;28;20486;-81
2023/10/03 00:28:48;;;;;;;16.83;11.17;;;26.40;57.20;;;;;;5049328;28;20454;-81
2023/10/03 00:31:16;;;;;;;17.63;11.60;;;26.40;57.20;;;;;;5054427;28;20474;-80
2023/10/03 00:33:44;;;;;;;16.50;10.87;;;26.30;57.20;;;;;;5061865;28;20454;-79
2023/10/03 00:36:18;;;;;;;19.93;11.83;;;26.30;57.20;;;;;;5058217;28;20436;-81
2023/10/03 00:38:46;;;;;;;20.63;12.60;;;26.40;57.20;;;;;;5061379;28;20433;-81
2023/10/03 00:41:15;;;;;;;17.00;11.27;;;26.30;57.10;;;;;;5069969;28;20421;-80
2023/10/03 00:43:54;;;;;;;17.80;12.20;;;26.30;57.10;;;;;;5049809;28;20430;-81
2023/10/03 00:46:22;;;;;;;16.93;11.30;;;26.30;57.00;;;;;;5057280;28;20428;-80
2023/10/03 00:48:50;;;;;;;18.23;11.77;;;26.30;57.20;;;;;;5055381;28;20474;-80
2023/10/03 00:51:20;;;;;;;17.80;11.10;;;26.30;57.10;;;;;;5065100;28;20470;-80
2023/10/03 00:53:50;;;;;;;18.13;11.07;;;26.30;57.10;;;;;;5068988;28;20449;-81
2023/10/03 00:56:19;;;;;;;15.70;10.63;;;26.20;57.00;;;;;;5060075;28;20448;-80
2023/10/03 00:58:48;;;;;;;18.70;10.70;;;26.20;57.20;;;;;;5067427;28;20415;-80
2023/10/03 01:01:19;;;;;;;19.40;11.63;;;26.30;57.20;;;;;;5066883;28;20433;-80
2023/10/03 01:03:47;;;;;;;20.80;11.23;;;26.30;57.20;;;;;;5070341;28;20438;-81
2023/10/03 01:06:16;;;;;;;16.47;10.20;;;26.20;57.10;;;;;;5062450;28;20419;-81
2023/10/03 01:08:46;;;;;;;18.33;11.07;;;26.20;57.10;;;;;;5070717;28;20397;-80
2023/10/03 01:11:16;;;;;;;17.40;11.03;;;26.20;57.20;;;;;;5070075;28;20465;-81
2023/10/03 01:13:46;;;;;;;18.97;11.40;;;26.20;57.10;;;;;;5070591;28;20757;-80
2023/10/03 01:16:20;;;;;;;18.23;10.87;;;26.20;57.10;;;;;;5063063;28;20406;-80
2023/10/03 01:18:52;;;;;;;18.43;10.70;;;26.10;57.30;;;;;;5060019;28;20439;-80
2023/10/03 01:21:21;;;;;;;15.70;10.33;;;26.20;57.20;;;;;;5061919;28;20465;-80
2023/10/03 01:23:51;;;;;;;17.47;10.97;;;26.20;57.30;;;;;;5066143;28;20495;-79
2023/10/03 01:26:21;;;;;;;18.00;11.07;;;26.10;57.90;;;;;;5059266;28;20469;-80
2023/10/03 01:28:49;;;;;;;16.80;10.40;;;26.20;57.40;;;;;;5067787;28;20439;-80
2023/10/03 01:31:17;;;;;;;17.67;10.93;;;26.20;57.40;;;;;;5068130;28;20485;-80
2023/10/03 01:33:47;;;;;;;17.10;10.90;;;26.20;57.40;;;;;;5070592;28;20429;-80
2023/10/03 01:36:15;;;;;;;14.50;9.40;;;26.10;57.50;;;;;;5070070;28;20438;-80
2023/10/03 01:38:43;;;;;;;15.43;10.30;;;26.10;57.40;;;;;;5066547;28;20440;-80
2023/10/03 01:41:13;;;;;;;15.20;9.70;;;26.10;57.40;;;;;;5067680;28;20461;-80
2023/10/03 01:43:43;;;;;;;17.20;10.80;;;26.10;57.40;;;;;;5068882;28;20496;-80
2023/10/03 01:46:11;;;;;;;15.63;9.47;;;26.10;57.40;;;;;;5067845;28;20437;-80
2023/10/03 01:48:41;;;;;;;16.40;9.73;;;26.10;57.50;;;;;;5068899;28;20413;-80
2023/10/03 01:51:09;;;;;;;15.03;9.97;;;26.10;57.50;;;;;;5068996;28;20471;-80
2023/10/03 01:53:39;;;;;;;15.53;9.87;;;26.10;57.50;;;;;;5068830;28;20421;-80
2023/10/03 01:56:09;;;;;;;20.90;10.50;;;26.10;57.30;;;;;;5068140;28;20401;-80
2023/10/03 01:58:39;;;;;;;15.20;9.93;;;26.10;57.50;;;;;;5066295;28;20466;-80
2023/10/03 02:01:07;;;;;;;17.40;10.00;;;26.00;57.40;;;;;;5064750;28;20458;-81
2023/10/03 02:03:35;;;;;;;17.27;9.40;;;26.00;57.40;;;;;;5059051;28;20410;-80
2023/10/03 02:06:06;;;;;;;14.70;8.73;;;26.00;57.50;;;;;;5049774;28;20436;-79
2023/10/03 02:08:34;;;;;;;14.63;9.13;;;26.00;57.50;;;;;;5049491;28;20410;-80
2023/10/03 02:11:05;;;;;;;14.97;9.53;;;26.00;57.40;;;;;;5056992;28;20433;-80
2023/10/03 02:13:34;;;;;;;15.73;9.40;;;26.00;57.50;;;;;;5052603;28;20439;-80
2023/10/03 02:16:05;;;;;;;20.07;8.77;;;26.00;57.50;;;;;;5067747;28;20432;-80
2023/10/03 02:18:33;;;;;;;18.60;10.23;;;26.00;57.50;;;;;;5055231;28;20445;-80
2023/10/03 02:21:02;;;;;;;16.10;9.70;;;26.00;57.60;;;;;;5063821;28;20433;-80
2023/10/03 02:23:32;;;;;;;19.40;10.40;;;26.00;57.50;;;;;;5064796;28;20438;-80
2023/10/03 02:26:07;;;;;;;13.50;9.00;;;26.00;57.60;;;;;;5064706;28;20420;-80
2023/10/03 02:28:36;;;;;;;16.70;8.97;;;26.00;57.60;;;;;;5062461;28;20498;-79
2023/10/03 02:31:07;;;;;;;13.90;8.60;;;26.00;57.50;;;;;;5056375;28;20440;-80
2023/10/03 02:33:40;;;;;;;13.50;8.90;;;26.00;57.70;;;;;;5058067;28;20401;-80
2023/10/03 02:36:09;;;;;;;18.20;9.57;;;26.00;57.60;;;;;;5060445;28;20427;-80
2023/10/03 02:38:38;;;;;;;15.93;9.60;;;26.00;57.50;;;;;;5052869;28;20441;-79
2023/10/03 02:41:07;;;;;;;15.67;9.10;;;25.90;57.50;;;;;;5062723;28;20436;-80
2023/10/03 02:43:38;;;;;;;15.20;9.37;;;25.90;57.60;;;;;;5055110;28;20432;-80
2023/10/03 02:46:11;;;;;;;15.97;8.97;;;25.90;57.60;;;;;;5048770;28;20424;-80
2023/10/03 02:48:41;;;;;;;12.60;8.00;;;25.90;57.60;;;;;;5058607;28;20441;-79
2023/10/03 02:51:10;;;;;;;16.47;9.90;;;25.90;57.60;;;;;;5063828;28;20481;-79
2023/10/03 02:53:38;;;;;;;17.90;10.17;;;25.90;57.60;;;;;;5061464;28;20421;-80
2023/10/03 02:56:07;;;;;;;14.60;8.87;;;25.90;57.70;;;;;;5061537;28;20428;-80
2023/10/03 02:58:36;;;;;;;15.40;9.47;;;25.90;57.70;;;;;;5061679;28;20490;-80
2023/10/03 03:01:04;;;;;;;15.57;9.30;;;25.90;57.70;;;;;;5050073;28;20449;-80
2023/10/03 03:03:34;;;;;;;15.87;9.27;;;25.90;57.80;;;;;;5041404;28;20482;-80
2023/10/03 03:06:03;;;;;;;16.07;9.57;;;25.90;57.70;;;;;;5061079;28;20471;-80
2023/10/03 03:08:32;;;;;;;13.83;8.50;;;25.80;57.80;;;;;;5053823;28;20465;-80
2023/10/03 03:11:00;;;;;;;16.30;8.70;;;25.80;57.70;;;;;;5057017;28;20436;-80
2023/10/03 03:13:31;;;;;;;15.77;9.27;;;25.80;57.70;;;;;;5058407;28;20420;-80
2023/10/03 03:16:01;;;;;;;16.53;9.43;;;25.80;57.80;;;;;;5048983;28;20442;-80
2023/10/03 03:18:31;;;;;;;16.60;9.47;;;25.80;57.80;;;;;;5049714;28;20484;-80
2023/10/03 03:21:04;;;;;;;16.23;9.13;;;25.70;57.90;;;;;;5048046;28;20447;-81
2023/10/03 03:23:36;;;;;;;15.70;9.23;;;25.80;57.90;;;;;;5066546;28;20435;-80
2023/10/03 03:26:14;;;;;;;17.97;9.23;;;25.70;57.80;;;;;;5068523;28;20504;-79
2023/10/03 03:28:44;;;;;;;20.23;9.07;;;25.70;57.80;;;;;;5050905;28;20406;-79
2023/10/03 03:31:20;;;;;;;15.40;8.93;;;25.70;57.80;;;;;;5071233;28;20426;-80
2023/10/03 03:33:50;;;;;;;16.80;9.17;;;25.70;57.80;;;;;;5069024;28;20406;-79
2023/10/03 03:36:21;;;;;;;18.70;10.00;;;25.70;57.80;;;;;;5050999;28;20456;-79
2023/10/03 03:38:51;;;;;;;16.60;9.60;;;25.70;57.80;;;;;;5054733;28;20441;-79
2023/10/03 03:41:20;;;;;;;18.47;10.37;;;25.70;57.80;;;;;;5064717;28;20437;-79
2023/10/03 03:43:54;;;;;;;16.90;10.40;;;25.70;57.70;;;;;;5047469;28;20432;-79
2023/10/03 03:46:26;;;;;;;15.77;9.33;;;25.70;57.70;;;;;;5059236;28;20448;-80
2023/10/03 03:48:58;;;;;;;17.13;9.97;;;25.70;57.70;;;;;;5056440;28;20446;-80
2023/10/03 03:51:30;;;;;;;18.70;10.30;;;25.70;57.60;;;;;;5065917;28;20931;-80
2023/10/03 03:54:00;;;;;;;17.20;10.10;;;25.70;57.70;;;;;;5054109;28;20426;-79
2023/10/03 03:56:29;;;;;;;17.80;10.13;;;25.70;57.80;;;;;;5060513;28;20421;-79
2023/10/03 03:58:58;;;;;;;16.03;9.43;;;25.70;57.80;;;;;;5065446;28;20441;-79
2023/10/03 04:01:28;;;;;;;18.03;10.30;;;25.70;57.80;;;;;;5065047;28;20490;-79
2023/10/03 04:03:59;;;;;;;16.80;9.80;;;25.70;57.80;;;;;;5063341;28;20413;-79
2023/10/03 04:06:29;;;;;;;20.97;10.73;;;25.70;57.70;;;;;;5047758;28;20493;-80
2023/10/03 04:08:57;;;;;;;22.47;11.33;;;25.70;57.80;;;;;;5049498;28;20435;-80
2023/10/03 04:11:35;;;;;;;18.47;10.37;;;25.60;57.70;;;;;;5058528;28;20430;-80
2023/10/03 04:14:05;;;;;;;19.10;10.73;;;25.60;57.80;;;;;;5055619;28;20444;-80
2023/10/03 04:16:39;;;;;;;23.13;10.63;;;25.70;57.90;;;;;;5055344;28;20454;-79
2023/10/03 04:19:10;;;;;;;17.77;10.20;;;25.60;57.70;;;;;;5070860;22;20466;-76
2023/10/03 04:21:41;;;;;;;18.10;10.30;;;25.60;57.70;;;;;;5047318;28;20433;-76
2023/10/03 04:24:11;;;;;;;18.80;10.73;;;25.70;57.80;;;;;;5047357;28;20991;-77
2023/10/03 04:26:42;;;;;;;20.07;11.03;;;25.60;57.60;;;;;;5067578;28;20457;-77
2023/10/03 04:29:13;;;;;;;17.23;10.13;;;25.60;57.80;;;;;;5049317;28;20473;-76
2023/10/03 04:31:42;;;;;;;21.53;11.17;;;25.70;57.80;;;;;;5063609;28;20431;-77
2023/10/03 04:34:15;;;;;;;21.00;11.13;;;25.60;57.60;;;;;;5063405;28;20450;-76
2023/10/03 04:36:47;;;;;;;21.33;11.20;;;25.60;57.70;;;;;;5055637;28;20448;-77
2023/10/03 04:39:15;;;;;;;19.73;10.77;;;25.60;57.70;;;;;;5067018;28;20479;-76
2023/10/03 04:41:45;;;;;;;24.63;12.17;;;25.60;57.70;;;;;;5059904;28;20420;-76
2023/10/03 04:44:17;;;;;;;19.77;9.93;;;25.60;57.60;;;;;;5066368;28;20978;-77
2023/10/03 04:46:45;;;;;;;24.10;11.60;;;25.60;57.80;;;;;;5067291;28;20476;-79
2023/10/03 04:49:15;;;;;;;20.90;11.10;;;25.60;57.60;;;;;;5049093;28;20474;-76
2023/10/03 04:51:45;;;;;;;21.97;11.20;;;25.50;57.70;;;;;;5067323;28;20496;-78
2023/10/03 04:54:17;;;;;;;22.03;11.30;;;25.60;57.70;;;;;;5056158;28;20448;-78
2023/10/03 04:56:45;;;;;;;20.47;11.40;;;25.60;57.70;;;;;;5042932;28;20447;-78
2023/10/03 04:59:14;;;;;;;22.90;11.27;;;25.60;57.70;;;;;;5041876;28;21049;-78
2023/10/03 05:01:43;;;;;;;20.70;10.90;;;25.60;57.70;;;;;;5034868;28;20422;-78
2023/10/03 05:04:12;;;;;;;23.37;10.90;;;25.60;57.50;;;;;;5045064;28;20421;-78
2023/10/03 05:06:42;;;;;;;24.00;11.43;;;25.60;57.50;;;;;;5053005;28;20413;-78
2023/10/03 05:09:13;;;;;;;21.40;11.00;;;25.60;57.50;;;;;;5050064;28;20528;-78
2023/10/03 05:11:41;;;;;;;26.83;10.27;;;25.60;57.50;;;;;;5036272;28;20471;-78
2023/10/03 05:14:12;;;;;;;21.03;11.67;;;25.60;57.50;;;;;;5032226;28;20922;-79
2023/10/03 05:16:40;;;;;;;18.03;10.37;;;25.60;57.40;;;;;;5032636;28;20492;-78
2023/10/03 05:19:09;;;;;;;19.73;10.30;;;25.60;57.70;;;;;;5031803;28;20454;-79
2023/10/03 05:21:38;;;;;;;18.67;10.00;;;25.60;57.40;;;;;;5040202;28;20450;-78
2023/10/03 05:24:09;;;;;;;18.70;9.83;;;25.60;57.40;;;;;;5032045;28;20437;-78
2023/10/03 05:26:39;;;;;;;21.77;11.60;;;25.60;57.50;;;;;;5031652;28;20462;-79
2023/10/03 05:29:07;;;;;;;21.80;10.97;;;25.60;57.60;;;;;;5038938;28;20470;-77
2023/10/03 05:31:37;;;;;;;24.07;11.67;;;25.60;57.60;;;;;;5032157;28;20411;-79
2023/10/03 05:34:06;;;;;;;20.20;10.90;;;25.60;57.40;;;;;;5031738;28;20439;-78
2023/10/03 05:36:34;;;;;;;22.20;11.20;;;25.60;57.40;;;;;;5027456;28;20510;-78
2023/10/03 05:39:03;;;;;;;23.50;11.77;;;25.60;57.50;;;;;;5039829;28;20528;-79
2023/10/03 05:41:31;;;;;;;18.27;10.23;;;25.60;58.10;;;;;;5032339;28;20512;-79
2023/10/03 05:44:01;;;;;;;18.33;9.90;;;25.60;57.50;;;;;;5037220;28;20433;-79
2023/10/03 05:46:32;;;;;;;22.27;11.80;;;25.60;57.40;;;;;;5037915;28;20428;-77
2023/10/03 05:49:00;;;;;;;21.87;11.30;;;25.70;57.40;;;;;;5033621;28;20983;-75
2023/10/03 05:51:29;;;;;;;20.63;10.87;;;25.70;57.50;;;;;;5045099;28;20450;-76
2023/10/03 05:53:59;;;;;;;21.93;12.17;;;25.70;57.30;;;;;;5033858;28;20589;-77
2023/10/03 05:56:27;;;;;;;23.00;11.50;;;25.70;57.30;;;;;;5031255;28;20433;-77
2023/10/03 05:58:55;;;;;;;23.13;11.20;;;25.70;57.50;;;;;;5031091;28;20500;-77
2023/10/03 06:01:24;;;;;;;21.30;11.40;;;25.70;57.30;;;;;;5032118;28;20520;-76
2023/10/03 06:03:53;;;;;;;20.67;11.17;;;25.70;57.30;;;;;;5047886;28;20927;-77
2023/10/03 06:06:22;;;;;;;24.90;12.20;;;25.70;57.30;;;;;;5031487;28;20455;-78
2023/10/03 06:08:50;;;;;;;23.97;11.70;;;25.70;57.30;;;;;;5031157;28;20832;-77
2023/10/03 06:11:19;;;;;;;21.70;11.43;;;25.80;57.30;;;;;;5043067;28;20423;-77
2023/10/03 06:13:47;;;;;;;26.00;11.93;;;25.80;57.40;;;;;;5050869;28;20516;-77
2023/10/03 06:16:15;;;;;;;23.47;11.87;;;25.70;57.20;;;;;;5051198;28;20471;-76
2023/10/03 06:18:44;;;;;;;24.67;12.40;;;25.80;57.30;;;;;;5046603;28;20430;-78
2023/10/03 06:21:12;;;;;;;20.57;12.30;;;25.80;57.30;;;;;;5042071;28;20456;-77
2023/10/03 06:23:40;;;;;;;20.90;11.20;;;25.90;57.30;;;;;;5044544;28;20418;-78
2023/10/03 06:26:09;;;;;;;20.00;11.33;;;25.80;57.20;;;;;;5030904;28;20478;-77
2023/10/03 06:28:37;;;;;;;19.90;10.80;;;25.90;57.10;;;;;;5031148;28;20447;-76
2023/10/03 06:31:05;;;;;;;19.73;10.90;;;25.90;57.30;;;;;;5032740;28;20861;-77
2023/10/03 06:33:33;;;;;;;21.57;11.07;;;25.90;57.20;;;;;;5045775;28;20426;-76
2023/10/03 06:36:06;;;;;;;23.37;11.73;;;25.90;56.90;;;;;;5042999;28;20414;-78
2023/10/03 06:38:34;;;;;;;20.63;10.57;;;25.90;56.90;;;;;;5040855;28;20505;-78
2023/10/03 06:41:03;;;;;;;20.83;11.20;;;25.90;57.00;;;;;;5047403;28;21013;-77
2023/10/03 06:43:32;;;;;;;22.53;11.87;;;26.00;57.10;;;;;;5030770;28;20551;-76
2023/10/03 06:46:00;;;;;;;20.00;10.90;;;26.00;57.00;;;;;;5031001;28;20447;-76
2023/10/03 06:48:29;;;;;;;21.23;11.87;;;26.00;56.90;;;;;;5031222;28;20449;-77
2023/10/03 06:51:00;;;;;;;20.93;10.87;;;26.00;56.90;;;;;;5045097;28;20496;-77
2023/10/03 06:53:31;;;;;;;21.77;11.80;;;26.10;57.00;;;;;;5040049;28;20425;-77
2023/10/03 06:55:59;;;;;;;19.77;10.70;;;26.10;56.80;;;;;;5046307;28;20469;-76
2023/10/03 06:58:28;;;;;;;19.10;10.37;;;26.10;56.80;;;;;;5049374;28;20429;-76
2023/10/03 07:00:56;;;;;;;19.40;10.30;;;26.20;56.90;;;;;;5054317;28;20509;-78
2023/10/03 07:03:25;;;;;;;20.33;10.80;;;26.10;56.70;;;;;;5064683;28;20417;-76
2023/10/03 07:05:54;;;;;;;21.07;11.17;;;26.10;57.00;;;;;;5039627;28;20436;-74
2023/10/03 07:08:23;;;;;;;19.53;10.77;;;26.20;56.90;;;;;;5046220;28;20450;-76
2023/10/03 07:10:52;;;;;;;19.27;10.17;;;26.10;57.00;;;;;;5051483;28;20474;-76
2023/10/03 07:13:20;;;;;;;21.30;10.97;;;26.20;57.00;;;;;;5034853;28;20427;-74
2023/10/03 07:15:52;;;;;;;19.40;10.50;;;26.10;57.00;;;;;;5034628;28;20421;-76
2023/10/03 07:18:20;;;;;;;21.67;10.70;;;26.20;56.90;;;;;;5034090;28;20495;-75
2023/10/03 07:20:49;;;;;;;22.00;10.70;;;26.20;56.90;;;;;;5034089;28;20503;-76
2023/10/03 07:23:19;;;;;;;20.50;10.67;;;26.20;56.90;;;;;;5034146;28;20844;-76
2023/10/03 07:25:48;;;;;;;19.97;10.50;;;26.30;56.80;;;;;;5034290;28;20444;-77
2023/10/03 07:28:17;;;;;;;21.40;10.43;;;26.30;56.90;;;;;;5037558;28;20426;-77
2023/10/03 07:30:45;;;;;;;21.47;10.60;;;26.30;56.80;;;;;;5034138;28;20529;-77
2023/10/03 07:33:14;;;;;;;21.23;11.13;;;26.20;56.90;;;;;;5034194;28;20417;-77
2023/10/03 07:35:44;;;;;;;19.23;10.20;;;26.20;56.90;;;;;;5033892;28;20454;-77
2023/10/03 07:38:14;;;;;;;18.70;9.87;;;26.20;57.10;;;;;;5034158;28;20433;-77
2023/10/03 07:40:46;;;;;;;18.20;9.70;;;26.20;56.80;;;;;;5033379;28;20475;-75
2023/10/03 07:43:14;;;;;;;18.17;10.73;;;26.20;57.10;;;;;;5036098;28;20437;-76
2023/10/03 07:45:43;;;;;;;18.47;9.40;;;26.20;56.90;;;;;;5053826;28;20417;-76
2023/10/03 07:48:12;;;;;;;18.37;9.93;;;26.30;56.90;;;;;;5053622;28;20431;-76
2023/10/03 07:50:40;;;;;;;22.30;10.00;;;26.30;56.90;;;;;;5048826;28;20466;-78
2023/10/03 07:53:11;;;;;;;16.83;9.20;;;26.30;57.50;;;;;;5053924;28;20447;-77
2023/10/03 07:55:40;;;;;;;14.87;9.13;;;26.30;57.00;;;;;;5045428;28;20446;-77
2023/10/03 07:58:08;;;;;;;19.90;9.57;;;26.40;56.80;;;;;;5053996;28;20475;-76
2023/10/03 08:00:37;;;;;;;19.40;9.70;;;26.30;57.10;;;;;;5047013;28;20453;-78
2023/10/03 08:03:08;;;;;;;19.87;9.40;;;26.40;57.10;;;;;;5050864;28;20432;-77
2023/10/03 08:05:37;;;;;;;18.00;9.20;;;26.40;57.10;;;;;;5054064;28;20406;-76
2023/10/03 08:08:05;;;;;;;15.87;8.57;;;26.50;57.00;;;;;;5061519;28;20491;-76
2023/10/03 08:10:33;;;;;;;15.87;8.63;;;26.50;56.90;;;;;;5053718;28;20424;-76
2023/10/03 08:13:03;;;;;;;17.60;9.00;;;26.50;57.00;;;;;;5061840;28;20441;-76
2023/10/03 08:15:32;;;;;;;15.93;8.80;;;26.60;57.00;;;;;;5057956;28;20434;-76
2023/10/03 08:18:01;;;;;;;17.43;9.60;;;26.70;56.90;;;;;;5045103;28;20458;-76
2023/10/03 08:20:30;;;;;;;15.47;8.83;;;26.80;56.70;;;;;;5053225;28;20459;-75
2023/10/03 08:23:03;;;;;;;13.37;7.73;;;26.90;56.60;;;;;;5053541;28;20449;-76
2023/10/03 08:25:34;;;;;;;17.63;8.80;;;27.00;56.40;;;;;;5046145;28;20421;-76
2023/10/03 08:28:09;;;;;;;15.27;8.20;;;26.90;56.50;;;;;;5054315;28;20425;-76
2023/10/03 08:30:38;;;;;;;15.20;8.23;;;27.00;56.60;;;;;;5045929;28;20437;-76
2023/10/03 08:33:07;;;;;;;13.13;7.30;;;27.00;56.50;;;;;;5051181;28;20425;-77
2023/10/03 08:35:37;;;;;;;13.63;7.90;;;27.10;56.40;;;;;;5040585;28;20441;-76
2023/10/03 08:38:06;;;;;;;13.80;8.10;;;27.10;56.30;;;;;;5041223;28;20455;-76
2023/10/03 08:40:38;;;;;;;13.23;7.90;;;27.10;56.40;;;;;;5045144;28;20448;-76
2023/10/03 08:43:08;;;;;;;20.53;8.60;;;27.10;56.40;;;;;;5037184;28;20459;-76
2023/10/03 08:45:39;;;;;;;12.37;7.47;;;27.20;56.30;;;;;;5049134;28;20418;-76
2023/10/03 08:48:07;;;;;;;12.23;7.17;;;27.10;56.30;;;;;;5033252;28;20467;-77
2023/10/03 08:50:43;;;;;;;13.80;7.90;;;27.10;56.30;;;;;;5038651;28;20542;-77
2023/10/03 08:53:15;;;;;;;13.30;7.50;;;27.10;56.40;;;;;;5033348;28;20431;-76
2023/10/03 08:55:47;;;;;;;12.80;7.37;;;27.10;56.50;;;;;;5032608;28;20422;-77
2023/10/03 08:58:18;;;;;;;10.17;7.17;;;27.00;56.40;;;;;;5041092;28;20450;-78
2023/10/03 09:00:49;;;;;;;11.30;7.20;;;27.00;56.40;;;;;;5053037;28;20532;-75
2023/10/03 09:03:18;;;;;;;10.30;6.57;;;27.00;56.60;;;;;;5051628;28;20471;-73
2023/10/03 09:05:48;;;;;;;13.30;7.43;;;27.00;56.70;;;;;;5040578;28;20486;-76
2023/10/03 09:08:17;;;;;;;10.80;6.27;;;27.00;56.70;;;;;;5046793;28;20439;-75
2023/10/03 09:10:52;;;;;;;13.73;7.03;;;27.00;56.80;;;;;;5042604;28;20445;-76
2023/10/03 09:13:24;;;;;;;13.03;6.43;;;27.00;56.80;;;;;;5051965;28;20475;-75
2023/10/03 09:15:59;;;;;;;9.20;6.17;;;27.00;56.70;;;;;;5051164;28;20482;-75
2023/10/03 09:18:29;;;;;;;12.37;6.47;;;27.00;56.60;;;;;;5051056;28;20531;-74
2023/10/03 09:21:00;;;;;;;10.13;6.43;;;27.00;56.70;;;;;;5051057;28;20452;-75
2023/10/03 09:23:37;;;;;;;11.10;6.77;;;27.00;56.70;;;;;;5050790;28;20526;-74
2023/10/03 09:26:08;;;;;;;14.73;6.60;;;27.00;56.80;;;;;;5034586;28;20426;-77
2023/10/03 09:28:36;;;;;;;14.50;6.47;;;27.00;58.70;;;;;;5043542;28;20449;-75
2023/10/03 09:31:08;;;;;;;11.53;5.93;;;27.10;59.90;;;;;;5051394;28;20448;-75
2023/10/03 09:33:40;;;;;;;9.70;5.70;;;27.20;60.50;;;;;;5043620;28;20453;-75
2023/10/03 09:36:09;;;;;;;10.73;6.23;;;27.30;60.80;;;;;;5051415;28;20430;-75
2023/10/03 09:38:45;;;;;;;11.70;6.20;;;27.40;61.00;;;;;;5047607;28;20448;-77
2023/10/03 09:41:17;;;;;;;9.37;5.40;;;27.40;61.20;;;;;;5038392;28;20445;-76
2023/10/03 09:43:49;;;;;;;11.13;5.90;;;27.50;61.30;;;;;;5031220;28;20426;-76
2023/10/03 09:46:23;;;;;;;12.10;5.50;;;27.50;61.30;;;;;;5031182;28;20407;-75
2023/10/03 09:48:54;;;;;;;9.20;6.20;;;27.50;61.30;;;;;;5031201;28;20424;-76
2023/10/03 09:51:36;;;;;;;9.47;5.83;;;27.50;61.60;;;;;;5040757;28;20440;-74
2023/10/03 09:54:08;;;;;;;10.83;5.43;;;27.50;61.50;;;;;;5036207;28;20443;-76
2023/10/03 09:56:40;;;;;;;10.37;5.20;;;27.60;61.80;;;;;;5039692;28;20547;-76
2023/10/03 09:59:08;;;;;;;11.47;5.43;;;27.70;61.70;;;;;;5045082;28;20455;-76
2023/10/03 10:01:39;;;;;;;7.90;5.53;;;27.70;62.30;;;;;;5040131;28;20438;-76
2023/10/03 10:04:08;;;;;;;11.27;5.60;;;27.70;62.00;;;;;;5031212;28;20534;-76
2023/10/03 10:06:47;;;;;;;12.60;5.60;;;27.70;61.40;;;;;;5031086;28;20422;-76
2023/10/03 10:09:27;;;;;;;11.27;5.93;;;27.60;62.10;;;;;;5030611;28;20484;-75
2023/10/03 10:12:15;;;;;;;8.73;5.30;;;27.60;61.90;;;;;;5031151;28;20398;-76
2023/10/03 10:15:13;;;;;;;12.23;5.83;;;27.60;62.10;;;;;;5032116;28;20455;-76
2023/10/03 10:17:44;;;;;;;9.03;5.10;;;27.60;62.00;;;;;;5038386;28;20422;-77
2023/10/03 10:20:17;;;;;;;17.50;5.87;;;27.60;62.30;;;;;;5031731;28;20537;-77
2023/10/03 10:23:22;;;;;;;9.30;5.20;;;27.60;62.40;;;;;;5039181;28;20528;-78
2023/10/03 10:25:51;;;;;;;10.57;5.90;;;27.60;63.00;;;;;;5047201;28;20587;-78
2023/10/03 10:28:21;;;;;;;12.90;5.20;;;27.70;62.70;;;;;;5055024;28;20429;-78
2023/10/03 10:31:16;;;;;;;8.90;4.83;;;27.70;62.50;;;;;;5054781;28;20466;-78
2023/10/03 10:33:44;;;;;;;7.63;4.60;;;27.70;62.70;;;;;;5044681;28;20446;-77
2023/10/03 10:36:13;;;;;;;9.40;5.47;;;27.70;62.90;;;;;;5038628;28;20498;-79
2023/10/03 10:38:53;;;;;;;8.67;5.13;;;27.70;62.70;;;;;;5034744;28;20525;-75
2023/10/03 10:41:26;;;;;;;9.47;6.07;;;27.60;62.90;;;;;;5034769;28;20421;-77
2023/10/03 10:44:13;;;;;;;13.53;5.27;;;27.70;62.70;;;;;;5033540;28;20413;-76
2023/10/03 10:46:44;;;;;;;9.83;4.97;;;27.60;63.00;;;;;;5041594;28;20782;-76
2023/10/03 10:49:51;;;;;;;6.50;4.33;;;27.60;63.00;;;;;;5033508;28;20438;-76
2023/10/03 10:52:51;;;;;;;8.90;4.40;;;27.60;63.10;;;;;;5053118;28;20469;-77
2023/10/03 10:55:21;;;;;;;6.60;4.30;;;27.70;62.90;;;;;;5054578;28;20504;-75
2023/10/03 10:58:03;;;;;;;10.40;5.10;;;27.70;62.80;;;;;;5049768;28;20452;-77
2023/10/03 11:00:33;;;;;;;9.13;4.87;;;27.70;63.30;;;;;;5034256;28;20471;-76
2023/10/03 11:03:02;;;;;;;8.57;4.53;;;27.70;63.20;;;;;;5033030;28;20448;-76
2023/10/03 11:05:42;;;;;;;8.10;5.00;;;27.80;63.50;;;;;;5042848;28;20425;-77
2023/10/03 11:08:11;;;;;;;7.50;4.70;;;27.80;63.60;;;;;;5040956;28;20465;-74
2023/10/03 11:10:48;;;;;;;9.87;4.80;;;27.90;63.60;;;;;;5034650;28;20865;-74
2023/10/03 11:13:19;;;;;;;7.80;4.70;;;27.90;62.90;;;;;;5034444;28;20530;-77
2023/10/03 11:15:50;;;;;;;4.40;2.13;;;27.80;60.50;;;;;;5045485;28;20405;-76
2023/10/03 11:18:18;;;;;;;3.20;1.53;;;25.30;61.70;;;;;;5053870;28;20421;-73
2023/10/03 11:20:47;;;;;;;6.20;1.30;;;24.10;64.80;;;;;;5053620;28;20911;-76
2023/10/03 11:23:17;;;;;;;5.37;1.50;;;23.10;67.10;;;;;;5051286;28;20430;-76
2023/10/03 11:25:54;;;;;;;4.07;1.80;;;23.00;71.20;;;;;;5042430;28;20478;-76
2023/10/03 11:28:23;;;;;;;7.67;1.63;;;22.60;71.40;;;;;;5035298;28;20455;-74
2023/10/03 11:31:02;;;;;;;3.37;0.90;;;22.20;72.40;;;;;;5036819;28;20459;-75
2023/10/03 11:33:41;;;;;;;2.90;1.30;;;21.80;74.90;;;;;;5037613;28;20520;-76
2023/10/03 11:36:10;;;;;;;3.27;1.40;;;21.80;73.10;;;;;;5039714;28;20451;-74
2023/10/03 11:38:45;;;;;;;9.50;1.43;;;21.60;75.20;;;;;;5038992;28;20446;-75
2023/10/03 11:41:13;;;;;;;2.80;1.10;;;21.10;78.40;;;;;;5041809;28;20534;-76
2023/10/03 11:43:46;;;;;;;15.63;3.13;;;21.00;78.90;;;;;;5046322;28;20442;-76
2023/10/03 11:46:15;;;;;;;1.97;0.90;;;21.10;78.20;;;;;;5041839;28;20429;-76
2023/10/03 11:48:44;;;;;;;1.57;1.17;;;21.00;77.60;;;;;;5050861;28;20450;-77
2023/10/03 11:51:13;;;;;;;1.73;1.00;;;21.00;79.50;;;;;;5053602;28;20464;-74
2023/10/03 11:53:41;;;;;;;3.13;1.70;;;21.20;77.50;;;;;;5038811;28;20479;-76
2023/10/03 11:56:09;;;;;;;19.50;12.63;;;21.30;77.60;;;;;;5040303;28;20534;-75
2023/10/03 11:58:37;;;;;;;3.13;1.97;;;21.30;77.90;;;;;;5043264;28;20455;-75
2023/10/03 12:01:07;;;;;;;2.57;1.67;;;21.40;75.50;;;;;;5051614;28;20470;-75
2023/10/03 12:03:37;;;;;;;3.83;1.87;;;21.40;76.20;;;;;;5037637;28;20474;-75
2023/10/03 12:06:06;;;;;;;1.90;1.13;;;21.60;75.10;;;;;;5053739;28;20417;-75
2023/10/03 12:08:36;;;;;;;4.23;1.30;;;21.70;73.10;;;;;;5036028;28;20489;-74
2023/10/03 12:11:05;;;;;;;3.60;1.27;;;21.70;73.00;;;;;;5033886;28;20455;-74
2023/10/03 12:13:33;;;;;;;3.80;1.20;;;21.60;73.30;;;;;;5043647;28;20467;-74
2023/10/03 12:16:04;;;;;;;2.97;1.30;;;21.90;74.10;;;;;;5046115;28;20495;-75
2023/10/03 12:18:36;;;;;;;2.90;1.20;;;21.90;71.40;;;;;;5040328;28;20458;-75
2023/10/03 12:21:05;;;;;;;2.73;1.40;;;21.30;72.90;;;;;;5046326;28;20475;-75
2023/10/03 12:23:34;;;;;;;5.73;2.60;;;21.50;73.30;;;;;;5034121;28;20450;-74
2023/10/03 12:26:04;;;;;;;6.13;2.57;;;21.20;73.90;;;;;;5046908;28;20534;-75
2023/10/03 12:28:47;;;;;;;4.90;1.73;;;21.30;73.90;;;;;;5049375;28;20442;-75
2023/10/03 12:31:25;;;;;;;2.77;2.07;;;21.70;73.10;;;;;;5033570;28;20443;-75
2023/10/03 12:33:55;;;;;;;6.67;4.07;;;21.80;72.50;;;;;;5037701;28;20525;-75
2023/10/03 12:36:23;;;;;;;8.27;1.93;;;21.90;74.70;;;;;;5035785;28;20457;-77
2023/10/03 12:38:51;;;;;;;7.30;1.60;;;21.50;72.00;;;;;;5052492;28;20454;-75
2023/10/03 12:41:20;;;;;;;2.73;1.40;;;21.60;75.00;;;;;;5054334;28;20453;-77
2023/10/03 12:43:48;;;;;;;7.10;1.60;;;21.60;73.60;;;;;;5048956;28;20439;-77
2023/10/03 12:46:16;;;;;;;5.50;1.60;;;22.00;72.40;;;;;;5051206;28;20457;-76
2023/10/03 12:48:44;;;;;;;7.03;1.27;;;21.80;71.90;;;;;;5050168;28;20496;-76
2023/10/03 12:51:14;;;;;;;2.23;1.00;;;21.60;72.10;;;;;;5040256;28;20461;-76